createdAt,value
2023-05-20T00:00:28.234Z,60.10
2023-05-20T00:02:54.733Z,60.40
2023-05-20T00:05:21.229Z,61.32
2023-05-20T00:07:47.714Z,61.49
2023-05-20T00:10:16.624Z,62.16
2023-05-20T00:12:43.106Z,62.66
2023-05-20T00:15:13.869Z,62.54
2023-05-20T00:17:40.418Z,63.06
2023-05-20T00:20:08.151Z,62.64
2023-05-20T00:22:35.392Z,61.87
2023-05-20T00:25:01.794Z,61.18
2023-05-20T00:27:28.284Z,60.96
2023-05-20T00:29:54.888Z,60.84
2023-05-20T00:32:21.420Z,60.72
2023-05-20T00:35:00.718Z,60.50
2023-05-20T00:37:32.044Z,60.81
2023-05-20T00:39:58.537Z,60.77
2023-05-20T00:42:28.725Z,60.85
2023-05-20T00:45:00.715Z,60.89
2023-05-20T00:47:32.137Z,61.15
2023-05-20T00:49:59.988Z,61.53
2023-05-20T00:52:29.546Z,62.59
2023-05-20T00:55:02.133Z,61.95
2023-05-20T00:57:28.775Z,62.76
2023-05-20T00:59:55.628Z,62.59
2023-05-20T01:02:23.824Z,64.30
2023-05-20T01:04:50.578Z,63.69
2023-05-20T01:07:19.134Z,62.88
2023-05-20T01:09:45.843Z,62.19
2023-05-20T01:12:20.761Z,63.67
2023-05-20T01:14:56.537Z,62.92
2023-05-20T01:17:27.157Z,63.36
2023-05-20T01:19:55.264Z,63.61
2023-05-20T01:22:27.575Z,63.61
2023-05-20T01:24:54.165Z,65.32
2023-05-20T01:27:25.703Z,63.97
2023-05-20T01:29:53.268Z,64.04
2023-05-20T01:32:23.235Z,63.83
2023-05-20T01:34:51.395Z,63.58
2023-05-20T01:37:19.825Z,63.65
2023-05-20T01:39:49.367Z,63.21
2023-05-20T01:42:17.107Z,62.98
2023-05-20T01:44:43.912Z,62.78
2023-05-20T01:47:10.682Z,62.36
2023-05-20T01:49:37.115Z,62.83
2023-05-20T01:52:05.026Z,62.90
2023-05-20T01:54:31.508Z,62.98
2023-05-20T01:57:00.430Z,62.96
2023-05-20T01:59:29.325Z,62.84
2023-05-20T02:02:00.540Z,63.31
2023-05-20T02:04:27.333Z,62.95
2023-05-20T02:06:54.303Z,63.25
2023-05-20T02:09:20.775Z,63.76
2023-05-20T02:11:52.057Z,62.96
2023-05-20T02:14:18.526Z,62.86
2023-05-20T02:16:48.462Z,63.55
2023-05-20T02:19:20.715Z,63.76
2023-05-20T02:21:48.938Z,64.51
2023-05-20T02:24:16.152Z,64.76
2023-05-20T02:26:47.304Z,64.05
2023-05-20T02:29:13.808Z,65.22
2023-05-20T02:31:40.230Z,65.18
2023-05-20T02:34:08.832Z,66.35
2023-05-20T02:36:35.463Z,65.50
2023-05-20T02:39:02.373Z,65.43
2023-05-20T02:41:30.224Z,65.51
2023-05-20T02:43:56.714Z,65.83
2023-05-20T02:46:23.187Z,65.23
2023-05-20T02:49:36.509Z,66.11
2023-05-20T02:52:03.079Z,66.32
2023-05-20T02:54:32.457Z,66.26
2023-05-20T02:56:59.050Z,66.77
2023-05-20T02:59:25.687Z,67.30
2023-05-20T03:01:52.449Z,66.83
2023-05-20T03:04:21.928Z,67.09
2023-05-20T03:06:48.595Z,67.49
2023-05-20T03:09:18.703Z,66.29
2023-05-20T03:11:47.614Z,66.67
2023-05-20T03:14:14.110Z,66.97
2023-05-20T03:16:43.129Z,67.04
2023-05-20T03:19:09.705Z,66.81
2023-05-20T03:21:36.213Z,66.88
2023-05-20T03:24:02.742Z,66.91
2023-05-20T03:26:30.526Z,66.72
2023-05-20T03:28:56.933Z,67.38
2023-05-20T03:31:23.571Z,67.13
2023-05-20T03:33:50.106Z,67.21
2023-05-20T03:36:16.534Z,68.29
2023-05-20T03:38:42.928Z,67.48
2023-05-20T03:41:09.462Z,67.33
2023-05-20T03:43:35.932Z,67.54
2023-05-20T03:46:02.361Z,68.40
2023-05-20T03:48:28.940Z,67.40
2023-05-20T03:50:57.842Z,67.91
2023-05-20T03:53:26.688Z,68.29
2023-05-20T03:55:55.415Z,68.83
2023-05-20T03:58:22.294Z,67.51
2023-05-20T04:00:51.428Z,67.43
2023-05-20T04:03:18.420Z,67.27
2023-05-20T04:05:44.924Z,67.71
2023-05-20T04:08:13.570Z,68.13
2023-05-20T04:10:43.007Z,67.69
2023-05-20T04:13:12.801Z,68.91
2023-05-20T04:15:39.230Z,68.29
2023-05-20T04:18:06.295Z,68.26
2023-05-20T04:20:33.113Z,67.86
2023-05-20T04:22:59.568Z,67.35
2023-05-20T04:25:26.312Z,67.72
2023-05-20T04:27:54.223Z,67.89
2023-05-20T04:30:22.002Z,67.97
2023-05-20T04:32:50.723Z,67.24
2023-05-20T04:35:17.582Z,67.79
2023-05-20T04:37:48.041Z,68.48
2023-05-20T04:40:14.658Z,68.60
2023-05-20T04:42:45.899Z,68.09
2023-05-20T04:45:13.582Z,67.77
2023-05-20T04:47:44.388Z,68.09
2023-05-20T04:50:11.816Z,67.66
2023-05-20T04:52:42.740Z,68.29
2023-05-20T04:55:12.355Z,68.45
2023-05-20T04:57:42.254Z,67.81
2023-05-20T05:00:11.019Z,68.31
2023-05-20T05:02:38.299Z,68.36
2023-05-20T05:05:07.756Z,68.51
2023-05-20T05:07:34.296Z,68.90
2023-05-20T05:10:01.195Z,68.48
2023-05-20T05:12:30.027Z,68.42
2023-05-20T05:14:58.658Z,68.62
2023-05-20T05:17:25.299Z,68.25
2023-05-20T05:19:51.777Z,68.62
2023-05-20T05:22:18.301Z,68.36
2023-05-20T05:24:44.878Z,68.43
2023-05-20T05:27:11.445Z,68.82
2023-05-20T05:29:37.881Z,68.32
2023-05-20T05:32:04.851Z,68.77
2023-05-20T05:34:36.211Z,68.81
2023-05-20T05:37:02.657Z,68.48
2023-05-20T05:39:29.180Z,68.17
2023-05-20T05:41:56.194Z,67.93
2023-05-20T05:44:22.675Z,68.42
2023-05-20T05:46:49.252Z,68.50
2023-05-20T05:49:15.936Z,68.06
2023-05-20T05:51:42.389Z,68.14
2023-05-20T05:54:08.812Z,67.00
2023-05-20T05:56:35.231Z,67.51
2023-05-20T05:59:04.640Z,67.66
2023-05-20T06:01:34.075Z,67.52
2023-05-20T06:04:00.793Z,66.79
2023-05-20T06:06:27.345Z,66.81
2023-05-20T06:08:56.187Z,66.53
2023-05-20T06:11:23.915Z,66.74
2023-05-20T06:13:50.719Z,67.16
2023-05-20T06:16:17.213Z,66.75
2023-05-20T06:18:44.150Z,66.45
2023-05-20T06:21:10.587Z,66.03
2023-05-20T06:23:37.216Z,65.78
2023-05-20T06:26:03.828Z,66.12
2023-05-20T06:28:30.879Z,65.82
2023-05-20T06:31:00.157Z,65.90
2023-05-20T06:33:27.540Z,65.07
2023-05-20T06:35:58.951Z,64.78
2023-05-20T06:38:25.462Z,66.21
2023-05-20T06:40:54.610Z,64.82
2023-05-20T06:43:25.733Z,63.90
2023-05-20T06:45:52.213Z,64.27
2023-05-20T06:48:18.716Z,64.48
2023-05-20T06:50:45.594Z,63.77
2023-05-20T06:53:12.158Z,64.47
2023-05-20T06:55:38.709Z,63.39
2023-05-20T06:58:07.537Z,63.72
2023-05-20T07:00:39.264Z,63.84
2023-05-20T07:03:05.700Z,64.16
2023-05-20T07:05:34.738Z,61.84
2023-05-20T07:08:01.353Z,61.28
2023-05-20T07:10:27.859Z,61.19
2023-05-20T07:12:54.287Z,60.14
2023-05-20T07:15:20.845Z,59.42
2023-05-20T07:17:47.358Z,58.66
2023-05-20T07:20:13.825Z,58.49
2023-05-20T07:22:44.074Z,57.88
2023-05-20T07:25:11.050Z,58.30
2023-05-20T07:27:37.701Z,58.32
2023-05-20T07:30:04.719Z,57.99
2023-05-20T07:32:31.435Z,57.14
2023-05-20T07:34:57.930Z,56.35
2023-05-20T07:37:24.562Z,56.04
2023-05-20T07:39:51.123Z,56.12
2023-05-20T07:42:17.538Z,55.97
2023-05-20T07:44:44.149Z,55.02
2023-05-20T07:47:10.636Z,56.82
2023-05-20T07:49:37.165Z,54.65
2023-05-20T07:52:03.810Z,55.05
2023-05-20T07:54:33.328Z,54.98
2023-05-20T07:57:02.147Z,55.32
2023-05-20T07:59:30.984Z,53.16
2023-05-20T08:01:57.973Z,53.41
2023-05-20T08:04:27.722Z,54.35
2023-05-20T08:06:55.331Z,54.59
2023-05-20T08:09:21.795Z,52.45
2023-05-20T08:11:48.236Z,53.65
2023-05-20T08:14:17.126Z,53.58
2023-05-20T08:16:46.455Z,54.03
2023-05-20T08:19:15.323Z,53.81
2023-05-20T08:21:42.497Z,54.30
2023-05-20T08:24:08.910Z,55.50
2023-05-20T08:26:35.402Z,54.02
2023-05-20T08:29:01.909Z,53.87
2023-05-20T08:31:31.003Z,53.96
2023-05-20T08:33:57.801Z,53.81
2023-05-20T08:36:24.756Z,54.79
2023-05-20T08:38:53.941Z,53.17
2023-05-20T08:41:22.374Z,52.50
2023-05-20T08:43:50.523Z,52.73
2023-05-20T08:46:21.952Z,52.15
2023-05-20T08:48:48.618Z,51.88
2023-05-20T08:51:17.634Z,51.39
2023-05-20T08:53:44.667Z,51.82
2023-05-20T08:56:12.837Z,52.02
2023-05-20T08:58:39.401Z,52.11
2023-05-20T09:01:07.752Z,51.73
2023-05-20T09:03:34.494Z,51.43
2023-05-20T09:06:09.868Z,51.52
2023-05-20T09:08:39.486Z,52.09
2023-05-20T09:11:06.257Z,51.98
2023-05-20T09:13:32.865Z,51.91
2023-05-20T09:16:05.468Z,51.13
2023-05-20T09:18:33.080Z,50.65
2023-05-20T09:21:07.039Z,50.90
2023-05-20T09:23:33.533Z,50.39
2023-05-20T09:26:02.368Z,49.44
2023-05-20T09:28:28.819Z,51.53
2023-05-20T09:30:59.842Z,49.96
2023-05-20T09:33:31.845Z,49.18
2023-05-20T09:36:07.407Z,49.53
2023-05-20T09:38:37.932Z,48.57
2023-05-20T09:41:12.395Z,48.71
2023-05-20T09:43:43.721Z,47.62
2023-05-20T09:46:10.795Z,47.11
2023-05-20T09:48:39.675Z,47.38
2023-05-20T09:51:07.823Z,47.10
2023-05-20T09:53:37.314Z,45.95
2023-05-20T09:56:04.103Z,45.66
2023-05-20T09:58:31.652Z,44.43
2023-05-20T10:00:58.291Z,44.78
2023-05-20T10:03:27.963Z,45.74
2023-05-20T10:06:17.532Z,44.80
2023-05-20T10:09:05.900Z,45.77
2023-05-20T10:12:04.078Z,45.33
2023-05-20T10:14:55.640Z,44.80
2023-05-20T10:17:25.308Z,44.92
2023-05-20T10:19:58.912Z,43.76
2023-05-20T10:22:29.838Z,45.29
2023-05-20T10:25:01.244Z,44.34
2023-05-20T10:27:27.651Z,44.93
2023-05-20T10:29:57.510Z,44.00
2023-05-20T10:32:33.055Z,45.70
2023-05-20T10:35:02.068Z,45.90
2023-05-20T10:37:31.162Z,45.02
2023-05-20T10:40:11.670Z,45.20
2023-05-20T10:42:38.750Z,44.12
2023-05-20T10:45:06.754Z,44.81
2023-05-20T10:47:33.592Z,45.30
2023-05-20T10:50:02.035Z,44.69
2023-05-20T10:52:33.007Z,44.87
2023-05-20T10:55:01.012Z,44.40
2023-05-20T10:57:31.027Z,44.63
2023-05-20T10:59:57.865Z,44.15
2023-05-20T11:02:27.157Z,42.52
2023-05-20T11:04:56.211Z,42.69
2023-05-20T11:07:29.691Z,43.65
2023-05-20T11:09:56.838Z,43.92
2023-05-20T11:12:24.166Z,43.52
2023-05-20T11:14:51.626Z,44.39
2023-05-20T11:17:20.786Z,44.79
2023-05-20T11:19:48.391Z,43.85
2023-05-20T11:22:15.148Z,44.45
2023-05-20T11:24:41.770Z,45.01
2023-05-20T11:27:08.288Z,44.99
2023-05-20T11:29:35.246Z,43.55
2023-05-20T11:32:02.163Z,43.75
2023-05-20T11:34:36.423Z,45.27
2023-05-20T11:37:07.968Z,45.03
2023-05-20T11:39:34.626Z,45.74
2023-05-20T11:42:01.134Z,44.09
2023-05-20T11:44:27.554Z,45.91
2023-05-20T11:47:01.414Z,45.19
2023-05-20T11:49:28.512Z,45.69
2023-05-20T11:51:54.944Z,46.01
2023-05-20T11:54:23.397Z,44.74
2023-05-20T11:56:49.924Z,44.70
2023-05-20T11:59:18.937Z,42.33
2023-05-20T12:01:45.751Z,44.68
2023-05-20T12:04:16.415Z,43.04
2023-05-20T12:06:44.097Z,42.93
2023-05-20T12:09:11.110Z,43.59
2023-05-20T12:11:40.678Z,42.99
2023-05-20T12:14:08.053Z,42.55
2023-05-20T12:16:36.027Z,43.03
2023-05-20T12:19:02.999Z,43.66
2023-05-20T12:21:30.025Z,44.58
2023-05-20T12:23:58.005Z,44.64
2023-05-20T12:26:28.028Z,44.60
2023-05-20T12:29:00.468Z,44.57
2023-05-20T12:31:27.007Z,44.94
2023-05-20T12:33:53.451Z,44.65
2023-05-20T12:36:20.039Z,44.17
2023-05-20T12:38:48.815Z,44.77
2023-05-20T12:41:15.440Z,43.65
2023-05-20T12:43:41.909Z,45.15
2023-05-20T12:46:08.603Z,45.20
2023-05-20T12:48:35.136Z,43.98
2023-05-20T12:51:01.652Z,44.06
2023-05-20T12:53:28.147Z,44.27
2023-05-20T12:55:54.723Z,44.76
2023-05-20T12:58:21.373Z,44.00
2023-05-20T13:00:47.901Z,44.22
2023-05-20T13:03:14.677Z,45.61
2023-05-20T13:05:43.921Z,45.08
2023-05-20T13:08:12.495Z,45.09
2023-05-20T13:10:41.574Z,44.10
2023-05-20T13:13:10.686Z,44.30
2023-05-20T13:15:37.110Z,44.47
2023-05-20T13:18:10.441Z,44.44
2023-05-20T13:20:37.325Z,44.25
2023-05-20T13:23:04.084Z,44.76
2023-05-20T13:25:31.785Z,45.31
2023-05-20T13:27:58.447Z,43.96
2023-05-20T13:30:24.983Z,44.52
2023-05-20T13:32:56.634Z,44.54
2023-05-20T13:35:23.114Z,43.63
2023-05-20T13:37:49.555Z,43.96
2023-05-20T13:40:16.051Z,44.01
2023-05-20T13:42:42.588Z,44.06
2023-05-20T13:45:09.403Z,44.60
2023-05-20T13:47:36.234Z,43.85
2023-05-20T13:50:04.922Z,43.52
2023-05-20T13:52:31.307Z,43.82
2023-05-20T13:54:57.807Z,44.10
2023-05-20T13:57:26.631Z,44.34
2023-05-20T13:59:53.022Z,44.31
2023-05-20T14:02:19.597Z,44.23
2023-05-20T14:04:47.099Z,44.68
2023-05-20T14:07:13.855Z,44.65
2023-05-20T14:09:40.308Z,45.21
2023-05-20T14:12:09.351Z,44.11
2023-05-20T14:14:35.952Z,43.78
2023-05-20T14:17:02.458Z,43.39
2023-05-20T14:19:31.198Z,43.57
2023-05-20T14:22:01.019Z,44.30
2023-05-20T14:24:30.345Z,44.26
2023-05-20T14:26:59.451Z,43.83
2023-05-20T14:29:25.910Z,44.24
2023-05-20T14:31:52.443Z,43.77
2023-05-20T14:34:18.998Z,44.35
2023-05-20T14:36:45.579Z,44.36
2023-05-20T14:39:15.152Z,44.10
2023-05-20T14:41:41.648Z,44.67
2023-05-20T14:44:08.076Z,44.76
2023-05-20T14:46:34.909Z,44.58
2023-05-20T14:49:01.414Z,44.23
2023-05-20T14:51:27.874Z,44.53
2023-05-20T14:53:54.403Z,44.56
2023-05-20T14:56:24.020Z,45.40
2023-05-20T14:58:50.446Z,45.37
2023-05-20T15:01:17.698Z,45.18
2023-05-20T15:03:44.234Z,45.83
2023-05-20T15:06:10.836Z,45.78
2023-05-20T15:08:39.737Z,45.75
2023-05-20T15:11:06.205Z,46.10
2023-05-20T15:13:32.683Z,46.08
2023-05-20T15:16:01.572Z,46.06
2023-05-20T15:18:28.013Z,45.99
2023-05-20T15:20:54.543Z,46.06
2023-05-20T15:23:21.554Z,45.42
2023-05-20T15:25:50.195Z,45.97
2023-05-20T15:28:19.484Z,46.72
2023-05-20T15:30:55.702Z,47.35
2023-05-20T15:33:22.896Z,47.22
2023-05-20T15:35:49.440Z,47.00
2023-05-20T15:38:18.283Z,47.66
2023-05-20T15:40:44.793Z,46.64
2023-05-20T15:43:11.236Z,46.73
2023-05-20T15:45:37.816Z,46.54
2023-05-20T15:48:04.524Z,46.69
2023-05-20T15:50:30.979Z,47.03
2023-05-20T15:52:57.551Z,46.76
2023-05-20T15:55:24.104Z,46.71
2023-05-20T15:57:55.759Z,47.04
2023-05-20T16:00:22.778Z,47.20
2023-05-20T16:02:49.453Z,47.60
2023-05-20T16:05:16.210Z,46.83
2023-05-20T16:07:42.850Z,46.86
2023-05-20T16:10:10.082Z,47.51
2023-05-20T16:12:36.518Z,47.08
2023-05-20T16:15:03.265Z,47.02
2023-05-20T16:17:32.497Z,47.64
2023-05-20T16:19:59.046Z,47.69
2023-05-20T16:22:25.523Z,48.47
2023-05-20T16:24:54.389Z,48.78
2023-05-20T16:27:23.271Z,49.00
2023-05-20T16:29:50.565Z,49.28
2023-05-20T16:32:17.284Z,49.10
2023-05-20T16:34:43.676Z,49.65
2023-05-20T16:37:15.936Z,49.03
2023-05-20T16:39:42.398Z,49.81
2023-05-20T16:42:09.212Z,50.39
2023-05-20T16:44:38.697Z,49.70
2023-05-20T16:47:11.624Z,50.34
2023-05-20T16:49:38.144Z,50.67
2023-05-20T16:52:05.057Z,50.41
2023-05-20T16:54:32.620Z,50.68
2023-05-20T16:56:59.133Z,50.87
2023-05-20T16:59:28.492Z,51.26
2023-05-20T17:01:54.904Z,51.46
2023-05-20T17:04:21.456Z,51.39
2023-05-20T17:06:50.448Z,51.56
2023-05-20T17:09:16.853Z,51.23
2023-05-20T17:11:43.746Z,51.70
2023-05-20T17:14:10.325Z,52.01
2023-05-20T17:16:36.852Z,51.91
2023-05-20T17:19:03.389Z,51.91
2023-05-20T17:21:32.561Z,52.17
2023-05-20T17:23:59.082Z,52.42
2023-05-20T17:26:25.917Z,52.25
2023-05-20T17:28:52.548Z,52.44
2023-05-20T17:31:19.140Z,52.70
2023-05-20T17:33:48.083Z,53.03
2023-05-20T17:36:16.438Z,53.26
2023-05-20T17:38:43.200Z,53.36
2023-05-20T17:41:09.641Z,53.72
2023-05-20T17:43:38.243Z,53.80
2023-05-20T17:46:04.918Z,54.36
2023-05-20T17:48:32.901Z,54.30
2023-05-20T17:50:59.385Z,54.70
2023-05-20T17:53:26.004Z,54.66
2023-05-20T17:55:53.121Z,55.32
2023-05-20T17:58:24.686Z,54.97
2023-05-20T18:00:51.902Z,55.08
2023-05-20T18:03:19.174Z,54.85
2023-05-20T18:05:46.538Z,55.67
2023-05-20T18:08:13.011Z,55.77
2023-05-20T18:10:39.563Z,55.87
2023-05-20T18:13:06.416Z,55.90
2023-05-20T18:15:32.853Z,56.15
2023-05-20T18:17:59.376Z,56.19
2023-05-20T18:20:25.871Z,56.53
2023-05-20T18:22:58.127Z,56.93
2023-05-20T18:25:25.798Z,56.97
2023-05-20T18:27:52.537Z,56.92
2023-05-20T18:30:19.105Z,57.29
2023-05-20T18:32:45.544Z,57.38
2023-05-20T18:35:12.091Z,57.33
2023-05-20T18:37:38.614Z,57.28
2023-05-20T18:40:08.289Z,57.80
2023-05-20T18:42:34.808Z,57.79
2023-05-20T18:45:01.468Z,57.70
2023-05-20T18:47:28.262Z,58.37
2023-05-20T18:49:55.778Z,58.08
2023-05-20T18:52:22.190Z,58.17
2023-05-20T18:54:48.644Z,58.66
2023-05-20T18:57:15.442Z,59.19
2023-05-20T18:59:41.977Z,58.99
2023-05-20T19:02:10.760Z,59.41
2023-05-20T19:04:37.284Z,59.81
2023-05-20T19:07:06.924Z,60.17
2023-05-20T19:09:33.308Z,60.14
2023-05-20T19:11:59.806Z,60.29
2023-05-20T19:14:31.307Z,60.53
2023-05-20T19:17:01.419Z,60.63
2023-05-20T19:19:28.338Z,60.48
2023-05-20T19:21:55.016Z,60.97
2023-05-20T19:24:21.480Z,61.17
2023-05-20T19:26:47.918Z,61.07
2023-05-20T19:29:15.360Z,61.46
2023-05-20T19:31:46.606Z,61.19
2023-05-20T19:34:13.255Z,62.17
2023-05-20T19:36:42.560Z,62.31
2023-05-20T19:39:13.223Z,62.46
2023-05-20T19:41:40.255Z,62.27
2023-05-20T19:44:08.425Z,62.27
2023-05-20T19:46:38.294Z,62.86
2023-05-20T19:49:07.521Z,62.93
2023-05-20T19:51:34.661Z,62.97
2023-05-20T19:54:01.592Z,63.53
2023-05-20T19:56:28.060Z,63.42
2023-05-20T19:58:54.476Z,63.43
2023-05-20T20:01:21.530Z,63.78
2023-05-20T20:03:48.015Z,64.06
2023-05-20T20:06:14.436Z,63.97
2023-05-20T20:08:41.578Z,64.49
2023-05-20T20:11:09.273Z,64.16
2023-05-20T20:13:35.798Z,64.67
2023-05-20T20:16:02.875Z,64.76
2023-05-20T20:18:29.581Z,64.78
2023-05-20T20:20:59.595Z,64.96
2023-05-20T20:23:26.808Z,64.77
2023-05-20T20:25:53.205Z,65.15
2023-05-20T20:28:19.646Z,65.17
2023-05-20T20:30:46.264Z,65.63
2023-05-20T20:33:13.325Z,65.23
2023-05-20T20:35:39.816Z,65.72
2023-05-20T20:38:09.679Z,65.45
2023-05-20T20:40:42.493Z,65.37
2023-05-20T20:43:10.992Z,66.61
2023-05-20T20:45:37.619Z,66.58
2023-05-20T20:48:08.038Z,66.26
2023-05-20T20:50:35.653Z,65.90
2023-05-20T20:53:02.609Z,66.81
2023-05-20T20:55:32.173Z,66.58
2023-05-20T20:58:02.488Z,66.96
2023-05-20T21:00:29.414Z,67.53
2023-05-20T21:02:56.267Z,66.75
2023-05-20T21:05:26.462Z,67.24
2023-05-20T21:07:59.247Z,67.32
2023-05-20T21:10:29.712Z,67.56
2023-05-20T21:13:02.029Z,67.25
2023-05-20T21:15:28.480Z,67.99
2023-05-20T21:17:55.031Z,67.46
2023-05-20T21:20:21.968Z,68.30
2023-05-20T21:22:53.101Z,68.21
2023-05-20T21:25:21.987Z,67.83
2023-05-20T21:27:48.540Z,68.20
2023-05-20T21:30:16.362Z,68.01
2023-05-20T21:32:42.913Z,68.56
2023-05-20T21:35:09.701Z,68.50
2023-05-20T21:37:36.184Z,68.64
2023-05-20T21:40:02.866Z,68.90
2023-05-20T21:42:29.380Z,68.65
2023-05-20T21:44:55.864Z,69.18
2023-05-20T21:47:22.292Z,69.19
2023-05-20T21:49:51.400Z,69.18
2023-05-20T21:52:17.823Z,69.16
2023-05-20T21:54:44.289Z,69.09
2023-05-20T21:57:10.850Z,69.20
2023-05-20T21:59:37.261Z,69.71
2023-05-20T22:02:06.177Z,70.07
2023-05-20T22:04:33.426Z,69.79
2023-05-20T22:07:02.200Z,69.18
2023-05-20T22:09:28.899Z,70.16
2023-05-20T22:11:56.185Z,70.05
2023-05-20T22:14:23.576Z,69.49
2023-05-20T22:16:50.131Z,69.80
2023-05-20T22:19:19.605Z,70.11
2023-05-20T22:21:50.856Z,70.35
2023-05-20T22:24:18.068Z,70.72
2023-05-20T22:26:44.678Z,70.62
2023-05-20T22:29:11.127Z,70.88
2023-05-20T22:31:38.082Z,71.12
2023-05-20T22:34:09.388Z,71.33
2023-05-20T22:36:36.360Z,71.45
2023-05-20T22:39:04.405Z,71.74
2023-05-20T22:41:30.969Z,71.71
2023-05-20T22:43:57.429Z,71.61
2023-05-20T22:46:24.671Z,71.87
2023-05-20T22:48:53.029Z,71.35
2023-05-20T22:51:22.326Z,71.49
2023-05-20T22:53:52.236Z,72.19
2023-05-20T22:56:23.761Z,72.26
2023-05-20T22:58:50.340Z,72.15
2023-05-20T23:01:17.188Z,71.59
2023-05-20T23:03:45.179Z,72.17
2023-05-20T23:06:14.032Z,72.72
2023-05-20T23:08:42.840Z,72.39
2023-05-20T23:11:09.489Z,72.49
2023-05-20T23:13:36.025Z,71.94
2023-05-20T23:16:02.445Z,72.44
2023-05-20T23:18:28.857Z,72.44
2023-05-20T23:20:58.092Z,72.06
2023-05-20T23:23:30.372Z,72.88
2023-05-20T23:25:57.617Z,72.38
2023-05-20T23:28:24.088Z,72.65
2023-05-20T23:30:52.851Z,72.70
2023-05-20T23:33:24.776Z,73.15
2023-05-20T23:35:52.773Z,72.97
2023-05-20T23:38:24.258Z,73.11
2023-05-20T23:40:50.847Z,73.18
2023-05-20T23:43:17.335Z,73.51
2023-05-20T23:45:43.882Z,73.43
2023-05-20T23:48:13.118Z,73.40
2023-05-20T23:50:40.595Z,73.43
2023-05-20T23:53:07.127Z,73.67
2023-05-20T23:55:33.855Z,73.90
2023-05-20T23:58:00.748Z,74.10
